Time;durP1;ratioP1;P1;durP2;ratioP2;P2;SDS_P1;SDS_P2;PMS_P1;PMS_P2;Temp;Humidity;BMP_temperature;BMP_pressure;BME280_temperature;BME280_humidity;BME280_pressure;Samples;Min_cycle;Max_cycle;Signal;HPM_P1;HPM_P2
2022/09/30 00:00:40;;;;;;;;;;;8.90;99.90;;;;;;5034101;28;20281;-71
2022/09/30 00:03:06;;;;;;;;;;;8.80;99.90;;;;;;5031659;28;19921;-71
2022/09/30 00:05:31;;;;;;;;;;;8.80;99.90;;;;;;5031190;28;19921;-72
2022/09/30 00:07:57;;;;;;;;;;;8.80;99.90;;;;;;5034655;28;19921;-72
2022/09/30 00:10:22;;;;;;;;;;;8.80;99.90;;;;;;5033748;28;20336;-72
2022/09/30 00:12:51;;;;;;;;;;;8.80;99.90;;;;;;5034867;28;19920;-71
2022/09/30 00:15:16;;;;;;;;;;;8.70;99.90;;;;;;5029958;28;19921;-72
2022/09/30 00:17:42;;;;;;;;;;;8.70;99.90;;;;;;5040737;28;19935;-71
2022/09/30 00:20:09;;;;;;;;;;;8.70;99.90;;;;;;5054305;28;20041;-72
2022/09/30 00:22:35;;;;;;;;;;;8.60;99.90;;;;;;5038645;28;19925;-72
2022/09/30 00:25:00;;;;;;;;;;;8.60;99.90;;;;;;5052408;28;19927;-72
2022/09/30 00:27:26;;;;;;;;;;;8.60;99.90;;;;;;5053894;28;20287;-72
2022/09/30 00:29:52;;;;;;;;;;;8.50;99.90;;;;;;5043512;28;19971;-72
2022/09/30 00:32:17;;;;;;;;;;;8.50;99.90;;;;;;5044451;28;19928;-72
2022/09/30 00:34:43;;;;;;;;;;;8.50;99.90;;;;;;5054381;28;19921;-72
2022/09/30 00:37:10;;;;;;;;;;;8.40;99.90;;;;;;5052285;28;19917;-71
2022/09/30 00:39:36;;;;;;;;;;;8.40;99.90;;;;;;5043425;28;20428;-71
2022/09/30 00:42:05;;;;;;;;;;;8.40;99.90;;;;;;5053785;28;20008;-72
2022/09/30 00:44:40;;;;;;;;;;;8.30;99.90;;;;;;5043323;28;19927;-71
2022/09/30 00:47:17;;;;;;;;;;;8.30;99.90;;;;;;5043796;28;20011;-71
2022/09/30 00:49:42;;;;;;;;;;;8.20;99.90;;;;;;5040679;28;20012;-71
2022/09/30 00:52:08;;;;;;;;;;;8.20;99.90;;;;;;5048717;28;20015;-72
2022/09/30 00:54:34;;;;;;;;;;;8.10;99.90;;;;;;5042304;28;19971;-72
2022/09/30 00:57:02;;;;;;;;;;;8.00;99.90;;;;;;5053488;28;20012;-71
2022/09/30 00:59:37;;;;;;;;;;;8.00;99.90;;;;;;5052852;28;19966;-71
2022/09/30 01:02:03;;;;;;;;;;;7.90;99.90;;;;;;5052800;28;19928;-71
2022/09/30 01:04:33;;;;;;;;;;;7.80;99.90;;;;;;5043687;28;20012;-71
2022/09/30 01:07:00;;;;;;;;;;;7.80;99.90;;;;;;5043480;28;19921;-71
2022/09/30 01:09:26;;;;;;;;;;;7.80;99.90;;;;;;5052375;28;19925;-72
2022/09/30 01:11:54;;;;;;;;;;;7.80;99.90;;;;;;5042697;28;20821;-72
2022/09/30 01:14:22;;;;;;;;;;;7.70;99.90;;;;;;5053022;28;19973;-72
2022/09/30 01:17:06;;;;;;;;;;;7.70;99.90;;;;;;5053601;28;19921;-72
2022/09/30 01:19:35;;;;;;;;;;;7.70;99.90;;;;;;5036585;28;19972;-71
2022/09/30 01:22:12;;;;;;;;;;;7.70;99.90;;;;;;5063710;28;19970;-71
2022/09/30 01:24:56;;;;;;;;;;;7.70;99.90;;;;;;5057885;28;19950;-72
2022/09/30 01:27:31;;;;;;;;;;;7.70;99.90;;;;;;5043711;28;19954;-72
2022/09/30 01:30:06;;;;;;;;;;;7.80;99.90;;;;;;5058174;28;19964;-71
2022/09/30 01:33:07;;;;;;;;;;;7.70;99.90;;;;;;5037917;28;19924;-72
2022/09/30 01:35:35;;;;;;;;;;;7.70;99.90;;;;;;4979603;28;19988;-72
2022/09/30 01:38:01;;;;;;;;;;;7.70;99.90;;;;;;5020937;28;20404;-71
2022/09/30 01:40:31;;;;;;;;;;;7.90;99.90;;;;;;5062814;28;20011;-71
2022/09/30 01:43:15;;;;;;;;;;;7.60;99.90;;;;;;5061591;28;19929;-71
2022/09/30 01:45:48;;;;;;;;;;;7.60;99.90;;;;;;5038732;28;19920;-71
2022/09/30 01:48:36;;;;;;;;;;;7.60;99.90;;;;;;5061415;28;20261;-71
2022/09/30 01:51:04;;;;;;;;;;;7.60;99.90;;;;;;5039258;28;19920;-71
2022/09/30 01:53:42;;;;;;;;;;;7.70;99.90;;;;;;5056801;28;20002;-71
2022/09/30 01:56:15;;;;;;;;;;;7.50;99.90;;;;;;5058302;28;20015;-71
2022/09/30 01:58:43;;;;;;;;;;;7.50;99.90;;;;;;5061007;28;20007;-71
2022/09/30 02:01:15;;;;;;;;;;;7.50;99.90;;;;;;5041530;28;19931;-71
2022/09/30 02:03:47;;;;;;;;;;;7.50;99.90;;;;;;5061588;28;20296;-71
2022/09/30 02:06:16;;;;;;;;;;;7.40;99.90;;;;;;5062353;28;19927;-72
2022/09/30 02:09:02;;;;;;;;;;;7.40;99.90;;;;;;5042603;28;19923;-71
2022/09/30 02:11:32;;;;;;;;;;;7.40;99.90;;;;;;5049142;28;19920;-71
2022/09/30 02:14:13;;;;;;;;;;;7.40;99.90;;;;;;5039175;28;20011;-71
2022/09/30 02:16:41;;;;;;;;;;;7.50;99.90;;;;;;5038345;28;19920;-72
2022/09/30 02:19:14;;;;;;;;;;;7.60;99.90;;;;;;5042303;28;19921;-71
2022/09/30 02:21:40;;;;;;;;;;;7.60;99.90;;;;;;5042317;28;19921;-72
2022/09/30 02:24:09;;;;;;;;;;;7.70;99.90;;;;;;5041645;28;19924;-71
2022/09/30 02:26:38;;;;;;;;;;;7.70;99.90;;;;;;5049535;28;19924;-71
2022/09/30 02:29:19;;;;;;;;;;;7.80;99.90;;;;;;5041699;28;19921;-71
2022/09/30 02:31:47;;;;;;;;;;;7.80;99.90;;;;;;5042026;28;20007;-71
2022/09/30 02:34:15;;;;;;;;;;;7.80;99.90;;;;;;5042702;28;19920;-71
2022/09/30 02:36:46;;;;;;;;;;;7.70;99.90;;;;;;5049504;28;19999;-72
2022/09/30 02:39:18;;;;;;;;;;;7.70;99.90;;;;;;5038319;28;19971;-71
2022/09/30 02:41:46;;;;;;;;;;;7.70;99.90;;;;;;5051822;28;19923;-71
2022/09/30 02:44:12;;;;;;;;;;;7.70;99.90;;;;;;5051381;28;19920;-71
2022/09/30 02:46:40;;;;;;;;;;;7.80;99.90;;;;;;5041908;28;19921;-71
2022/09/30 02:49:10;;;;;;;;;;;7.70;99.90;;;;;;5051776;28;19965;-71
2022/09/30 02:51:40;;;;;;;;;;;7.70;99.90;;;;;;5040322;28;19921;-72
2022/09/30 02:54:24;;;;;;;;;;;7.60;99.90;;;;;;5041478;28;20427;-71
2022/09/30 02:57:09;;;;;;;;;;;7.60;99.90;;;;;;5038411;28;20083;-71
2022/09/30 02:59:34;;;;;;;;;;;7.60;99.90;;;;;;5039887;28;19929;-71
2022/09/30 03:02:00;;;;;;;;;;;7.60;99.90;;;;;;5042479;28;19921;-71
2022/09/30 03:04:27;;;;;;;;;;;7.60;99.90;;;;;;5050501;28;19930;-71
2022/09/30 03:06:53;;;;;;;;;;;7.50;99.90;;;;;;5049048;28;19928;-71
2022/09/30 03:09:23;;;;;;;;;;;7.50;99.90;;;;;;5051650;28;20265;-71
2022/09/30 03:11:49;;;;;;;;;;;7.50;99.90;;;;;;5037607;28;19986;-71
2022/09/30 03:14:23;;;;;;;;;;;7.40;99.90;;;;;;5048048;28;19971;-71
2022/09/30 03:17:03;;;;;;;;;;;7.40;99.90;;;;;;5047248;28;20019;-70
2022/09/30 03:19:30;;;;;;;;;;;7.40;99.90;;;;;;5050635;28;19927;-71
2022/09/30 03:22:04;;;;;;;;;;;7.40;99.90;;;;;;5042078;28;20312;-71
2022/09/30 03:24:33;;;;;;;;;;;7.40;99.90;;;;;;5038689;28;19990;-72
2022/09/30 03:27:17;;;;;;;;;;;7.40;99.90;;;;;;5041218;28;19925;-71
2022/09/30 03:29:49;;;;;;;;;;;7.40;99.90;;;;;;5037904;28;19975;-71
2022/09/30 03:32:32;;;;;;;;;;;7.40;99.90;;;;;;5047415;28;19921;-72
2022/09/30 03:35:02;;;;;;;;;;;7.30;99.90;;;;;;5038057;28;20011;-71
2022/09/30 03:37:37;;;;;;;;;;;7.30;99.90;;;;;;5041365;28;20327;-71
2022/09/30 03:40:10;;;;;;;;;;;7.30;99.90;;;;;;5050899;28;20368;-71
2022/09/30 03:42:38;;;;;;;;;;;7.30;99.90;;;;;;5049039;28;19925;-71
2022/09/30 03:45:19;;;;;;;;;;;7.20;99.90;;;;;;5050552;28;19921;-71
2022/09/30 03:47:47;;;;;;;;;;;7.20;99.90;;;;;;5037349;28;20356;-71
2022/09/30 03:50:15;;;;;;;;;;;7.30;99.90;;;;;;5050857;28;19975;-71
2022/09/30 03:52:41;;;;;;;;;;;7.60;99.90;;;;;;5039186;28;20011;-71
2022/09/30 03:55:08;;;;;;;;;;;7.20;99.90;;;;;;5044623;28;20008;-71
2022/09/30 03:57:33;;;;;;;;;;;7.10;99.90;;;;;;5052019;28;19964;-71
2022/09/30 04:00:02;;;;;;;;;;;7.10;99.90;;;;;;5044537;28;20340;-71
2022/09/30 04:02:28;;;;;;;;;;;7.20;99.90;;;;;;5053605;28;20011;-71
2022/09/30 04:04:54;;;;;;;;;;;7.20;99.90;;;;;;5050758;28;19920;-71
2022/09/30 04:07:19;;;;;;;;;;;7.20;99.90;;;;;;5044640;28;19928;-71
2022/09/30 04:09:45;;;;;;;;;;;7.10;99.90;;;;;;5053892;28;19924;-71
2022/09/30 04:12:10;;;;;;;;;;;7.10;99.90;;;;;;5044177;28;19917;-71
2022/09/30 04:14:36;;;;;;;;;;;7.10;99.90;;;;;;5043199;28;20470;-71
2022/09/30 04:17:02;;;;;;;;;;;7.10;99.90;;;;;;5046521;28;19920;-69
2022/09/30 04:19:28;;;;;;;;;;;7.00;99.90;;;;;;5061292;28;19920;-71
2022/09/30 04:21:54;;;;;;;;;;;7.00;99.90;;;;;;5045409;28;19927;-71
2022/09/30 04:24:20;;;;;;;;;;;7.00;99.90;;;;;;5045677;28;19920;-71
2022/09/30 04:26:45;;;;;;;;;;;7.00;99.90;;;;;;5064957;28;19924;-71
2022/09/30 04:29:11;;;;;;;;;;;7.00;99.90;;;;;;5058813;28;19940;-71
2022/09/30 04:31:36;;;;;;;;;;;7.10;99.90;;;;;;5047603;28;19924;-71
2022/09/30 04:34:02;;;;;;;;;;;7.00;99.90;;;;;;5044435;28;19925;-71
2022/09/30 04:36:27;;;;;;;;;;;6.90;99.90;;;;;;5046215;28;19920;-71
2022/09/30 04:38:53;;;;;;;;;;;6.90;99.90;;;;;;5044424;28;19923;-70
2022/09/30 04:41:19;;;;;;;;;;;6.90;99.90;;;;;;5060261;28;20319;-71
2022/09/30 04:43:45;;;;;;;;;;;6.90;99.90;;;;;;5045669;28;19924;-71
2022/09/30 04:46:18;;;;;;;;;;;6.90;99.90;;;;;;5062725;28;19980;-71
2022/09/30 04:48:45;;;;;;;;;;;6.90;99.90;;;;;;5064143;28;19924;-71
2022/09/30 04:51:11;;;;;;;;;;;6.80;99.90;;;;;;5041752;28;20449;-72
2022/09/30 04:53:37;;;;;;;;;;;6.90;99.90;;;;;;5064665;28;19925;-70
2022/09/30 04:56:03;;;;;;;;;;;6.80;99.90;;;;;;5044411;28;20016;-71
2022/09/30 04:58:28;;;;;;;;;;;6.70;99.90;;;;;;5056881;28;19950;-72
2022/09/30 05:01:04;;;;;;;;;;;6.60;99.90;;;;;;5047096;28;19924;-73
2022/09/30 05:03:30;;;;;;;;;;;6.60;99.90;;;;;;5038970;28;19920;-72
2022/09/30 05:05:55;;;;;;;;;;;6.50;99.90;;;;;;5052691;28;20304;-72
2022/09/30 05:08:21;;;;;;;;;;;6.50;99.90;;;;;;5059805;28;20062;-72
2022/09/30 05:10:56;;;;;;;;;;;6.40;99.90;;;;;;5043638;28;19916;-72
2022/09/30 05:13:22;;;;;;;;;;;6.40;99.90;;;;;;5062723;28;19928;-72
2022/09/30 05:15:48;;;;;;;;;;;6.50;99.90;;;;;;5063350;28;19920;-73
2022/09/30 05:18:13;;;;;;;;;;;6.40;99.90;;;;;;5057345;28;19928;-73
2022/09/30 05:20:39;;;;;;;;;;;6.40;99.90;;;;;;5043251;28;19920;-78
2022/09/30 05:23:05;;;;;;;;;;;6.40;99.90;;;;;;5036967;28;19920;-80
2022/09/30 05:25:30;;;;;;;;;;;6.40;99.90;;;;;;5041761;28;19920;-73
2022/09/30 05:27:56;;;;;;;;;;;6.40;99.90;;;;;;5037354;28;19974;-72
2022/09/30 05:30:21;;;;;;;;;;;6.30;99.90;;;;;;5037434;28;20345;-76
2022/09/30 05:32:47;;;;;;;;;;;6.30;99.90;;;;;;5041054;28;19981;-72
2022/09/30 05:35:15;;;;;;;;;;;6.30;99.90;;;;;;5052656;28;20352;-73
2022/09/30 05:37:41;;;;;;;;;;;6.20;99.90;;;;;;5052347;28;20296;-72
2022/09/30 05:40:07;;;;;;;;;;;6.30;99.90;;;;;;5041530;28;19921;-71
2022/09/30 05:42:34;;;;;;;;;;;6.20;99.90;;;;;;5042174;28;20280;-74
2022/09/30 05:45:00;;;;;;;;;;;6.20;99.90;;;;;;5052386;28;19928;-74
2022/09/30 05:47:26;;;;;;;;;;;6.30;99.90;;;;;;5041564;28;19921;-79
2022/09/30 05:49:51;;;;;;;;;;;6.30;99.90;;;;;;5038718;28;19920;-75
2022/09/30 05:52:17;;;;;;;;;;;6.30;99.90;;;;;;5045027;28;20308;-73
2022/09/30 05:54:42;;;;;;;;;;;6.30;99.90;;;;;;5042445;28;19928;-73
2022/09/30 05:57:08;;;;;;;;;;;6.30;99.90;;;;;;5051233;28;19968;-72
2022/09/30 05:59:33;;;;;;;;;;;6.40;99.90;;;;;;5050577;28;19956;-72
2022/09/30 06:01:59;;;;;;;;;;;6.40;99.90;;;;;;5050959;28;19921;-70
2022/09/30 06:04:24;;;;;;;;;;;6.50;99.90;;;;;;5042414;28;19925;-70
2022/09/30 06:06:50;;;;;;;;;;;6.50;99.90;;;;;;5042962;28;19920;-72
2022/09/30 06:09:16;;;;;;;;;;;6.60;99.90;;;;;;5041362;28;19921;-71
2022/09/30 06:11:41;;;;;;;;;;;6.30;99.90;;;;;;5051263;28;20054;-75
2022/09/30 06:14:07;;;;;;;;;;;6.40;99.90;;;;;;5050172;28;19921;-71
2022/09/30 06:16:33;;;;;;;;;;;6.50;99.90;;;;;;5051465;28;20295;-67
2022/09/30 06:18:58;;;;;;;;;;;6.60;99.90;;;;;;5056733;28;19921;-72
2022/09/30 06:21:24;;;;;;;;;;;6.60;99.90;;;;;;5050967;28;19937;-74
2022/09/30 06:23:49;;;;;;;;;;;7.00;99.90;;;;;;5032643;28;19925;-71
2022/09/30 06:26:15;;;;;;;;;;;6.80;99.90;;;;;;5044375;28;19925;-77
2022/09/30 06:28:41;;;;;;;;;;;6.90;99.90;;;;;;5040034;28;19974;-75
2022/09/30 06:31:07;;;;;;;;;;;7.00;99.90;;;;;;5057879;28;19931;-77
2022/09/30 06:33:32;;;;;;;;;;;7.00;99.90;;;;;;5040752;28;19924;-81
2022/09/30 06:35:58;;;;;;;;;;;7.10;99.90;;;;;;5058895;28;19921;-77
2022/09/30 06:38:24;;;;;;;;;;;7.20;99.90;;;;;;5060299;28;19916;-77
2022/09/30 06:40:50;;;;;;;;;;;7.20;99.90;;;;;;5042538;28;19958;-77
2022/09/30 06:43:21;;;;;;;;;;;7.20;99.90;;;;;;5038859;28;19956;-77
2022/09/30 06:45:48;;;;;;;;;;;7.30;99.90;;;;;;5061793;28;20363;-77
2022/09/30 06:48:15;;;;;;;;;;;7.50;99.90;;;;;;5023553;28;19967;-82
2022/09/30 06:50:40;;;;;;;;;;;7.50;99.90;;;;;;5036794;28;19920;-77
2022/09/30 06:53:07;;;;;;;;;;;7.60;99.90;;;;;;5058133;28;20510;-77
2022/09/30 06:55:35;;;;;;;;;;;7.70;99.90;;;;;;5043721;28;19935;-79
2022/09/30 06:58:01;;;;;;;;;;;7.80;99.90;;;;;;5036137;28;19963;-76
2022/09/30 07:00:27;;;;;;;;;;;7.80;99.90;;;;;;5059563;28;19962;-76
2022/09/30 07:02:56;;;;;;;;;;;7.90;99.90;;;;;;5036920;28;19947;-79
2022/09/30 07:05:22;;;;;;;;;;;7.90;99.90;;;;;;5040913;28;19943;-80
2022/09/30 07:07:48;;;;;;;;;;;8.00;99.90;;;;;;5060531;28;19920;-76
2022/09/30 07:10:16;;;;;;;;;;;8.10;99.90;;;;;;5045255;28;19920;-79
2022/09/30 07:12:42;;;;;;;;;;;8.20;99.90;;;;;;5060052;28;20283;-77
2022/09/30 07:15:08;;;;;;;;;;;8.30;99.90;;;;;;5042535;28;19921;-77
2022/09/30 07:17:33;;;;;;;;;;;8.30;99.90;;;;;;5040036;28;19920;-81
2022/09/30 07:19:59;;;;;;;;;;;8.50;99.90;;;;;;5041982;28;19921;-83
2022/09/30 07:22:28;;;;;;;;;;;8.60;99.90;;;;;;5051443;28;20324;-83
2022/09/30 07:24:58;;;;;;;;;;;8.70;99.90;;;;;;5050571;28;19920;-85
2022/09/30 07:27:24;;;;;;;;;;;8.80;99.90;;;;;;5054112;28;19928;-77
2022/09/30 07:29:50;;;;;;;;;;;8.90;99.90;;;;;;5048388;28;19920;-76
2022/09/30 07:32:18;;;;;;;;;;;9.20;99.90;;;;;;5054043;28;20015;-73
2022/09/30 07:34:44;;;;;;;;;;;9.30;99.90;;;;;;5053522;28;20342;-82
2022/09/30 07:37:11;;;;;;;;;;;10.20;99.90;;;;;;5041404;28;19921;-77
2022/09/30 07:39:37;;;;;;;;;;;11.70;99.90;;;;;;5044133;28;20233;-79
2022/09/30 07:42:03;;;;;;;;;;;13.10;99.90;;;;;;5052950;28;20009;-80
2022/09/30 07:44:28;;;;;;;;;;;14.20;99.90;;;;;;5035327;28;20474;-82
2022/09/30 07:46:54;;;;;;;;;;;15.60;99.90;;;;;;5040079;28;19928;-80
2022/09/30 07:49:24;;;;;;;;;;;16.70;99.90;;;;;;5044759;28;19927;-79
2022/09/30 07:51:54;;;;;;;;;;;17.70;99.90;;;;;;5048618;28;20368;-78
2022/09/30 07:54:23;;;;;;;;;;;18.60;99.90;;;;;;5040893;28;19920;-80
2022/09/30 07:56:50;;;;;;;;;;;19.70;99.90;;;;;;5045277;28;19976;-82
2022/09/30 07:59:16;;;;;;;;;;;20.40;99.90;;;;;;5044920;28;20062;-83
2022/09/30 08:01:44;;;;;;;;;;;20.90;99.90;;;;;;5044431;28;19921;-85
2022/09/30 08:04:10;;;;;;;;;;;21.10;99.60;;;;;;5043483;28;19928;-77
2022/09/30 08:06:36;;;;;;;;;;;21.60;99.70;;;;;;5038170;28;19925;-86
2022/09/30 08:09:02;;;;;;;;;;;22.40;99.60;;;;;;5044961;28;20343;-81
2022/09/30 08:11:31;;;;;;;;;;;22.60;96.40;;;;;;5050930;28;20007;-78
2022/09/30 08:13:57;;;;;;;;;;;23.10;96.10;;;;;;5042918;28;19966;-76
2022/09/30 08:16:25;;;;;;;;;;;23.60;96.70;;;;;;5056297;28;19921;-77
2022/09/30 08:19:02;;;;;;;;;;;23.90;94.30;;;;;;5053444;28;19967;-90
2022/09/30 08:21:28;;;;;;;;;;;23.70;93.40;;;;;;5035462;28;20007;-84
2022/09/30 08:23:54;;;;;;;;;;;23.90;92.80;;;;;;5041777;28;20462;-83
2022/09/30 08:26:19;;;;;;;;;;;24.50;93.20;;;;;;5053258;28;19920;-84
2022/09/30 08:28:47;;;;;;;;;;;24.80;92.20;;;;;;5055513;28;19924;-79
2022/09/30 08:31:18;;;;;;;;;;;24.90;91.60;;;;;;5044755;28;19944;-85
2022/09/30 08:33:43;;;;;;;;;;;24.50;92.40;;;;;;5054731;28;19928;-87
2022/09/30 08:36:10;;;;;;;;;;;25.00;91.20;;;;;;5040877;28;20296;-82
2022/09/30 08:38:36;;;;;;;;;;;25.10;91.50;;;;;;5037611;28;19967;-83
2022/09/30 08:41:07;;;;;;;;;;;24.70;91.10;;;;;;5046369;28;20398;-83
2022/09/30 08:43:59;;;;;;;;;;;25.20;91.20;;;;;;5042866;28;19978;-82
2022/09/30 08:46:31;;;;;;;;;;;25.10;91.10;;;;;;5040244;28;19928;-81
2022/09/30 08:49:04;;;;;;;;;;;25.70;90.80;;;;;;5043725;28;19921;-82
2022/09/30 08:51:35;;;;;;;;;;;25.50;89.30;;;;;;5049007;28;19920;-87
2022/09/30 08:54:04;;;;;;;;;;;25.90;90.00;;;;;;5048357;28;19974;-87
2022/09/30 08:56:30;;;;;;;;;;;26.10;87.40;;;;;;5048799;28;20273;-87
2022/09/30 08:59:02;;;;;;;;;;;25.90;88.30;;;;;;5055028;28;19925;-87
2022/09/30 09:01:30;;;;;;;;;;;26.00;86.20;;;;;;5053250;28;19928;-87
2022/09/30 09:03:57;;;;;;;;;;;25.80;87.60;;;;;;5058174;28;19970;-83
2022/09/30 09:06:41;;;;;;;;;;;25.70;88.30;;;;;;5056987;28;19983;-80
2022/09/30 09:09:11;;;;;;;;;;;26.10;86.30;;;;;;5039071;28;19920;-86
2022/09/30 09:11:43;;;;;;;;;;;25.90;86.60;;;;;;5037846;28;19924;-85
2022/09/30 09:14:08;;;;;;;;;;;26.20;86.40;;;;;;5041368;28;19978;-87
2022/09/30 09:17:00;;;;;;;;;;;25.90;87.10;;;;;;5042156;28;19964;-87
2022/09/30 09:19:31;;;;;;;;;;;26.40;85.50;;;;;;5039931;28;20273;-86
2022/09/30 09:22:00;;;;;;;;;;;26.30;86.60;;;;;;5055225;28;19974;-86
2022/09/30 09:24:27;;;;;;;;;;;26.20;88.00;;;;;;5050813;28;19924;-84
2022/09/30 09:26:54;;;;;;;;;;;27.00;84.60;;;;;;5030498;28;20292;-88
2022/09/30 09:29:24;;;;;;;;;;;27.10;83.20;;;;;;5040841;28;19928;-86
2022/09/30 09:31:50;;;;;;;;;;;26.80;83.20;;;;;;5056293;28;19990;-86
2022/09/30 09:34:15;;;;;;;;;;;26.90;83.00;;;;;;5053313;28;20380;-91
2022/09/30 09:36:51;;;;;;;;;;;26.20;83.80;;;;;;5046205;28;20391;-89
2022/09/30 09:39:31;;;;;;;;;;;25.80;84.30;;;;;;5051297;28;20303;-94
2022/09/30 09:42:05;;;;;;;;;;;25.80;83.10;;;;;;5054539;28;20015;-93
2022/09/30 09:44:31;;;;;;;;;;;25.40;83.60;;;;;;5045407;28;19925;-90
2022/09/30 09:47:03;;;;;;;;;;;25.80;84.00;;;;;;5055208;28;20011;-90
2022/09/30 09:49:30;;;;;;;;;;;26.00;84.00;;;;;;5045465;28;19951;-87
2022/09/30 09:52:04;;;;;;;;;;;26.60;83.80;;;;;;5037399;28;20288;-80
2022/09/30 09:54:33;;;;;;;;;;;26.50;81.80;;;;;;5053240;28;19921;-84
2022/09/30 09:57:08;;;;;;;;;;;26.40;82.40;;;;;;5040796;28;20424;-86
2022/09/30 09:59:34;;;;;;;;;;;25.80;84.80;;;;;;5050102;28;19928;-83
2022/09/30 10:01:59;;;;;;;;;;;26.40;83.10;;;;;;5040849;28;19946;-84
2022/09/30 10:04:28;;;;;;;;;;;26.70;82.60;;;;;;5041985;28;20339;-83
2022/09/30 10:06:55;;;;;;;;;;;26.80;81.40;;;;;;5043620;28;20433;-82
2022/09/30 10:09:24;;;;;;;;;;;26.60;80.50;;;;;;5043085;28;20339;-82
2022/09/30 10:11:51;;;;;;;;;;;26.90;80.80;;;;;;5050605;28;19917;-82
2022/09/30 10:14:19;;;;;;;;;;;26.60;81.00;;;;;;5051651;28;19977;-84
2022/09/30 10:16:45;;;;;;;;;;;27.10;78.50;;;;;;5053611;28;19920;-83
2022/09/30 10:19:25;;;;;;;;;;;26.60;78.70;;;;;;5061710;28;19920;-88
2022/09/30 10:22:11;;;;;;;;;;;26.10;79.40;;;;;;5040373;28;19928;-80
2022/09/30 10:24:37;;;;;;;;;;;26.30;79.70;;;;;;5038736;28;20465;-86
2022/09/30 10:27:03;;;;;;;;;;;26.60;81.80;;;;;;5041568;28;19927;-85
2022/09/30 10:29:35;;;;;;;;;;;26.60;80.00;;;;;;5038210;28;19921;-84
2022/09/30 10:32:07;;;;;;;;;;;25.40;80.20;;;;;;5042567;28;19929;-85
2022/09/30 10:34:35;;;;;;;;;;;24.70;83.70;;;;;;5041750;28;19958;-85
2022/09/30 10:37:06;;;;;;;;;;;24.80;83.40;;;;;;5058799;28;19928;-85
2022/09/30 10:39:34;;;;;;;;;;;24.30;85.00;;;;;;5041977;28;19917;-86
2022/09/30 10:42:20;;;;;;;;;;;24.90;84.60;;;;;;5040270;28;19987;-86
2022/09/30 10:44:47;;;;;;;;;;;25.50;84.30;;;;;;5040256;28;19935;-87
2022/09/30 10:47:15;;;;;;;;;;;25.90;84.90;;;;;;5061149;28;19921;-85
2022/09/30 10:49:59;;;;;;;;;;;25.70;82.70;;;;;;5045610;28;19926;-85
2022/09/30 10:52:26;;;;;;;;;;;25.90;82.50;;;;;;5047148;28;20257;-86
2022/09/30 10:54:53;;;;;;;;;;;25.80;83.20;;;;;;5064613;28;20376;-84
2022/09/30 10:57:22;;;;;;;;;;;25.30;82.10;;;;;;5044135;28;19921;-87
2022/09/30 11:00:13;;;;;;;;;;;25.00;82.80;;;;;;5059898;28;19921;-86
2022/09/30 11:02:45;;;;;;;;;;;25.10;83.90;;;;;;5056456;28;19927;-85
2022/09/30 11:05:29;;;;;;;;;;;24.80;81.60;;;;;;5049961;28;19971;-86
2022/09/30 11:08:13;;;;;;;;;;;25.30;84.00;;;;;;5049127;28;20011;-85
2022/09/30 11:10:44;;;;;;;;;;;24.70;83.50;;;;;;5064705;28;19927;-86
2022/09/30 11:13:29;;;;;;;;;;;24.00;85.20;;;;;;5049002;28;19928;-87
2022/09/30 11:16:13;;;;;;;;;;;24.10;85.00;;;;;;5064417;28;19925;-87
2022/09/30 11:18:46;;;;;;;;;;;24.40;83.40;;;;;;5054844;28;19978;-90
2022/09/30 11:21:21;;;;;;;;;;;24.60;82.80;;;;;;5055217;28;20428;-89
2022/09/30 11:23:49;;;;;;;;;;;24.70;82.60;;;;;;5050129;28;19924;-89
2022/09/30 11:26:15;;;;;;;;;;;24.90;82.70;;;;;;5063145;28;19920;-93
2022/09/30 11:28:51;;;;;;;;;;;24.70;83.30;;;;;;5046907;28;20002;-90
2022/09/30 11:31:39;;;;;;;;;;;24.70;83.90;;;;;;5036383;28;19982;-88
2022/09/30 11:34:14;;;;;;;;;;;25.30;82.20;;;;;;5047236;28;19921;-87
2022/09/30 11:36:47;;;;;;;;;;;25.30;82.70;;;;;;5065538;28;19974;-86
2022/09/30 11:39:16;;;;;;;;;;;25.40;83.00;;;;;;5039181;28;19927;-84
2022/09/30 11:41:50;;;;;;;;;;;25.00;83.30;;;;;;5048296;28;20364;-88
2022/09/30 11:44:35;;;;;;;;;;;25.30;85.00;;;;;;5049821;28;20394;-84
2022/09/30 11:47:13;;;;;;;;;;;26.10;83.70;;;;;;5045674;28;19948;-81
2022/09/30 11:49:48;;;;;;;;;;;25.40;83.80;;;;;;5047345;28;19920;-84
2022/09/30 11:52:17;;;;;;;;;;;24.90;84.20;;;;;;5047375;28;19924;-75
2022/09/30 11:54:52;;;;;;;;;;;23.70;87.80;;;;;;5035468;28;19929;-77
2022/09/30 11:57:25;;;;;;;;;;;23.90;88.50;;;;;;5052252;28;19921;-80
2022/09/30 12:00:13;;;;;;;;;;;24.90;87.30;;;;;;5052400;28;20011;-78
2022/09/30 12:02:44;;;;;;;;;;;25.50;86.60;;;;;;5051259;28;19927;-79
2022/09/30 12:05:13;;;;;;;;;;;25.50;86.20;;;;;;5040761;28;19921;-78
2022/09/30 12:07:57;;;;;;;;;;;25.60;86.60;;;;;;5043745;28;20270;-78
2022/09/30 12:11:01;;;;;;;;;;;25.70;85.40;;;;;;5065920;28;19943;-79
2022/09/30 12:13:30;;;;;;;;;;;25.80;85.20;;;;;;4999854;28;20396;-76
2022/09/30 12:15:56;;;;;;;;;;;25.20;84.90;;;;;;5000583;28;20555;-78
2022/09/30 12:18:27;;;;;;;;;;;24.90;86.10;;;;;;5033603;28;19920;-77
2022/09/30 12:20:55;;;;;;;;;;;24.70;86.60;;;;;;5044457;28;19920;-77
2022/09/30 12:23:32;;;;;;;;;;;24.30;86.60;;;;;;5065296;28;19920;-77
2022/09/30 12:25:59;;;;;;;;;;;23.90;87.10;;;;;;5043797;28;20303;-78
2022/09/30 12:31:22;;;;;;;;;;;23.70;89.20;;;;;;5062456;28;19924;-79
2022/09/30 12:34:07;;;;;;;;;;;23.30;89.60;;;;;;5040824;28;20003;-79
2022/09/30 12:37:04;;;;;;;;;;;23.90;88.80;;;;;;5063647;28;20007;-80
2022/09/30 12:39:36;;;;;;;;;;;24.00;88.00;;;;;;5024494;28;20424;-79
2022/09/30 12:42:09;;;;;;;;;;;24.10;88.80;;;;;;5033693;28;19929;-79
2022/09/30 12:44:55;;;;;;;;;;;24.20;88.90;;;;;;5043354;28;19920;-79
2022/09/30 12:47:44;;;;;;;;;;;24.00;88.80;;;;;;5047250;28;19920;-79
2022/09/30 12:50:12;;;;;;;;;;;23.50;90.10;;;;;;5029932;28;20015;-79
2022/09/30 12:52:37;;;;;;;;;;;22.90;90.10;;;;;;5034280;28;19960;-80
2022/09/30 12:55:19;;;;;;;;;;;22.80;90.80;;;;;;5065042;28;20023;-80
2022/09/30 12:57:45;;;;;;;;;;;22.50;90.30;;;;;;5058752;28;19928;-79
2022/09/30 13:00:13;;;;;;;;;;;21.80;91.70;;;;;;5047638;28;19924;-79
2022/09/30 13:02:41;;;;;;;;;;;21.40;91.80;;;;;;5037078;28;19924;-80
2022/09/30 13:05:25;;;;;;;;;;;21.00;92.10;;;;;;5051112;28;19924;-79
2022/09/30 13:08:16;;;;;;;;;;;20.90;92.20;;;;;;5039676;28;19920;-80
2022/09/30 13:10:47;;;;;;;;;;;20.50;92.90;;;;;;5030369;28;20016;-75
2022/09/30 13:13:12;;;;;;;;;;;20.40;92.70;;;;;;5046103;28;19920;-76
2022/09/30 13:15:39;;;;;;;;;;;20.30;93.00;;;;;;5055735;28;19921;-74
2022/09/30 13:18:30;;;;;;;;;;;19.90;92.80;;;;;;5057854;28;19925;-78
2022/09/30 13:21:09;;;;;;;;;;;19.60;92.60;;;;;;5021380;28;19925;-76
2022/09/30 13:23:36;;;;;;;;;;;19.50;93.30;;;;;;5042950;28;20019;-77
2022/09/30 13:26:02;;;;;;;;;;;19.40;93.40;;;;;;5034693;28;19921;-78
2022/09/30 13:28:29;;;;;;;;;;;19.30;93.60;;;;;;5045023;28;19921;-76
2022/09/30 13:31:17;;;;;;;;;;;19.10;94.30;;;;;;5053990;28;19927;-77
2022/09/30 13:34:01;;;;;;;;;;;19.30;94.40;;;;;;5039350;28;20407;-76
2022/09/30 13:36:30;;;;;;;;;;;19.10;94.20;;;;;;5050500;28;20380;-74
2022/09/30 13:39:06;;;;;;;;;;;18.50;94.40;;;;;;5049802;28;19935;-74
2022/09/30 13:41:35;;;;;;;;;;;18.30;94.50;;;;;;5051884;28;19924;-74
2022/09/30 13:44:12;;;;;;;;;;;18.10;94.30;;;;;;5055454;28;19921;-75
2022/09/30 13:46:42;;;;;;;;;;;17.90;95.30;;;;;;5047796;28;20377;-74
2022/09/30 13:49:10;;;;;;;;;;;17.90;95.00;;;;;;5056899;28;20288;-75
2022/09/30 13:51:40;;;;;;;;;;;17.60;95.00;;;;;;5046156;28;20003;-72
2022/09/30 13:54:08;;;;;;;;;;;17.40;95.20;;;;;;5026497;28;19932;-73
2022/09/30 13:56:35;;;;;;;;;;;17.30;95.20;;;;;;5031112;28;20400;-74
2022/09/30 13:59:08;;;;;;;;;;;17.20;96.20;;;;;;5037061;28;19920;-79
2022/09/30 14:01:46;;;;;;;;;;;17.10;96.90;;;;;;5030623;28;19970;-79
2022/09/30 14:04:16;;;;;;;;;;;17.10;96.30;;;;;;5051387;28;19921;-75
2022/09/30 14:06:47;;;;;;;;;;;17.30;95.70;;;;;;5045369;28;19999;-74
2022/09/30 14:09:13;;;;;;;;;;;17.30;95.70;;;;;;5042891;28;19920;-74
2022/09/30 14:11:58;;;;;;;;;;;17.20;95.60;;;;;;5029681;28;20372;-74
2022/09/30 14:14:23;;;;;;;;;;;17.10;96.00;;;;;;5032703;28;20364;-70
2022/09/30 14:16:52;;;;;;;;;;;17.00;96.70;;;;;;5042858;28;19939;-71
2022/09/30 14:19:30;;;;;;;;;;;16.80;96.90;;;;;;5024761;28;20381;-78
2022/09/30 14:22:02;;;;;;;;;;;16.80;96.90;;;;;;5028151;28;19921;-73
2022/09/30 14:24:34;;;;;;;;;;;16.90;97.00;;;;;;5030330;28;19921;-73
2022/09/30 14:27:15;;;;;;;;;;;16.80;97.00;;;;;;5029258;28;20008;-76
2022/09/30 14:29:44;;;;;;;;;;;16.90;96.90;;;;;;5028374;28;20012;-77
2022/09/30 14:32:13;;;;;;;;;;;16.90;96.50;;;;;;5025471;28;19921;-76
2022/09/30 14:34:40;;;;;;;;;;;17.00;96.90;;;;;;5030793;28;20011;-77
2022/09/30 14:37:10;;;;;;;;;;;16.90;97.00;;;;;;5031525;28;19929;-76
2022/09/30 14:39:36;;;;;;;;;;;16.60;97.40;;;;;;5029928;28;19925;-77
2022/09/30 14:42:01;;;;;;;;;;;16.70;97.50;;;;;;5031499;28;19921;-78
2022/09/30 14:44:30;;;;;;;;;;;16.60;97.70;;;;;;5031360;28;19955;-77